sensor_id;sensor_type;location;lat;lon;timestamp;temperature;humidity
76567;DHT22;65428;53.194;6.132;2023-04-03T00:01:07;1.00;99.90
76567;DHT22;65428;53.194;6.132;2023-04-03T00:03:37;1.70;99.90
76567;DHT22;65428;53.194;6.132;2023-04-03T00:06:03;1.00;99.90
76567;DHT22;65428;53.194;6.132;2023-04-03T00:08:31;1.00;99.90
76567;DHT22;65428;53.194;6.132;2023-04-03T00:10:58;1.00;99.90
76567;DHT22;65428;53.194;6.132;2023-04-03T00:13:24;1.20;99.90
76567;DHT22;65428;53.194;6.132;2023-04-03T00:15:51;1.00;99.90
76567;DHT22;65428;53.194;6.132;2023-04-03T00:18:17;1.30;99.90
76567;DHT22;65428;53.194;6.132;2023-04-03T00:20:43;1.40;99.90
76567;DHT22;65428;53.194;6.132;2023-04-03T00:23:09;1.10;99.90
76567;DHT22;65428;53.194;6.132;2023-04-03T00:25:35;1.00;99.90
76567;DHT22;65428;53.194;6.132;2023-04-03T00:28:02;0.90;99.90
76567;DHT22;65428;53.194;6.132;2023-04-03T00:30:28;1.00;99.90
76567;DHT22;65428;53.194;6.132;2023-04-03T00:32:57;0.90;99.90
76567;DHT22;65428;53.194;6.132;2023-04-03T00:35:24;0.90;99.90
76567;DHT22;65428;53.194;6.132;2023-04-03T00:38:04;1.30;99.90
76567;DHT22;65428;53.194;6.132;2023-04-03T00:40:35;0.90;99.90
76567;DHT22;65428;53.194;6.132;2023-04-03T00:43:02;1.10;99.90
76567;DHT22;65428;53.194;6.132;2023-04-03T00:45:38;1.30;99.90
76567;DHT22;65428;53.194;6.132;2023-04-03T00:48:08;1.40;99.90
76567;DHT22;65428;53.194;6.132;2023-04-03T00:50:37;0.80;99.90
76567;DHT22;65428;53.194;6.132;2023-04-03T00:53:14;1.20;99.90
76567;DHT22;65428;53.194;6.132;2023-04-03T00:55:42;0.80;99.90
76567;DHT22;65428;53.194;6.132;2023-04-03T00:58:08;0.90;99.90
76567;DHT22;65428;53.194;6.132;2023-04-03T01:00:38;0.80;99.90
76567;DHT22;65428;53.194;6.132;2023-04-03T01:03:08;0.90;99.90
76567;DHT22;65428;53.194;6.132;2023-04-03T01:05:38;0.80;99.90
76567;DHT22;65428;53.194;6.132;2023-04-03T01:08:07;0.80;99.90
76567;DHT22;65428;53.194;6.132;2023-04-03T01:10:45;0.70;99.90
76567;DHT22;65428;53.194;6.132;2023-04-03T01:13:27;0.80;99.90
76567;DHT22;65428;53.194;6.132;2023-04-03T01:15:54;0.80;99.90
76567;DHT22;65428;53.194;6.132;2023-04-03T01:18:21;0.90;99.90
76567;DHT22;65428;53.194;6.132;2023-04-03T01:26:18;0.80;99.90
76567;DHT22;65428;53.194;6.132;2023-04-03T01:28:44;1.10;99.90
76567;DHT22;65428;53.194;6.132;2023-04-03T01:31:26;0.80;99.90
76567;DHT22;65428;53.194;6.132;2023-04-03T01:33:54;0.70;99.90
76567;DHT22;65428;53.194;6.132;2023-04-03T01:36:29;0.70;99.90
76567;DHT22;65428;53.194;6.132;2023-04-03T01:38:57;0.60;99.90
76567;DHT22;65428;53.194;6.132;2023-04-03T01:41:26;0.80;99.90
76567;DHT22;65428;53.194;6.132;2023-04-03T01:43:59;0.90;99.90
76567;DHT22;65428;53.194;6.132;2023-04-03T01:46:45;0.60;99.90
76567;DHT22;65428;53.194;6.132;2023-04-03T01:49:13;0.80;99.90
76567;DHT22;65428;53.194;6.132;2023-04-03T01:54:20;0.50;99.90
76567;DHT22;65428;53.194;6.132;2023-04-03T01:56:46;0.40;99.90
76567;DHT22;65428;53.194;6.132;2023-04-03T01:59:12;0.50;99.90
76567;DHT22;65428;53.194;6.132;2023-04-03T02:01:38;0.60;99.90
76567;DHT22;65428;53.194;6.132;2023-04-03T02:04:04;0.40;99.90
76567;DHT22;65428;53.194;6.132;2023-04-03T02:06:30;0.30;99.90
76567;DHT22;65428;53.194;6.132;2023-04-03T02:08:56;0.40;99.90
76567;DHT22;65428;53.194;6.132;2023-04-03T02:11:27;0.40;99.90
76567;DHT22;65428;53.194;6.132;2023-04-03T02:13:56;0.50;99.90
76567;DHT22;65428;53.194;6.132;2023-04-03T02:16:24;0.60;99.90
76567;DHT22;65428;53.194;6.132;2023-04-03T02:18:49;0.40;99.90
76567;DHT22;65428;53.194;6.132;2023-04-03T02:21:15;0.30;99.90
76567;DHT22;65428;53.194;6.132;2023-04-03T02:23:41;0.20;99.90
76567;DHT22;65428;53.194;6.132;2023-04-03T02:26:11;0.40;99.90
76567;DHT22;65428;53.194;6.132;2023-04-03T02:28:40;0.20;99.90
76567;DHT22;65428;53.194;6.132;2023-04-03T02:31:07;0.50;99.90
76567;DHT22;65428;53.194;6.132;2023-04-03T02:33:34;0.20;99.90
76567;DHT22;65428;53.194;6.132;2023-04-03T02:36:08;0.20;99.90
76567;DHT22;65428;53.194;6.132;2023-04-03T02:38:50;0.20;99.90
76567;DHT22;65428;53.194;6.132;2023-04-03T02:41:16;0.20;99.90
76567;DHT22;65428;53.194;6.132;2023-04-03T02:43:44;0.80;99.90
76567;DHT22;65428;53.194;6.132;2023-04-03T02:46:26;0.30;99.90
76567;DHT22;65428;53.194;6.132;2023-04-03T02:48:52;0.10;99.90
76567;DHT22;65428;53.194;6.132;2023-04-03T02:51:21;0.20;99.90
76567;DHT22;65428;53.194;6.132;2023-04-03T02:53:52;0.10;99.90
76567;DHT22;65428;53.194;6.132;2023-04-03T02:56:21;0.30;99.90
76567;DHT22;65428;53.194;6.132;2023-04-03T02:58:47;-0.10;99.90
76567;DHT22;65428;53.194;6.132;2023-04-03T03:01:13;0.20;99.90
76567;DHT22;65428;53.194;6.132;2023-04-03T03:03:39;0.10;99.90
76567;DHT22;65428;53.194;6.132;2023-04-03T03:06:08;0.10;99.90
76567;DHT22;65428;53.194;6.132;2023-04-03T03:08:35;-0.10;99.90
76567;DHT22;65428;53.194;6.132;2023-04-03T03:11:02;-0.20;99.90
76567;DHT22;65428;53.194;6.132;2023-04-03T03:13:28;-0.20;99.90
76567;DHT22;65428;53.194;6.132;2023-04-03T03:16:02;-0.20;99.90
76567;DHT22;65428;53.194;6.132;2023-04-03T03:18:31;-0.20;99.90
76567;DHT22;65428;53.194;6.132;2023-04-03T03:20:58;-0.20;99.90
76567;DHT22;65428;53.194;6.132;2023-04-03T03:23:26;-0.40;99.90
76567;DHT22;65428;53.194;6.132;2023-04-03T03:25:58;-0.30;99.90
76567;DHT22;65428;53.194;6.132;2023-04-03T03:28:24;-0.30;99.90
76567;DHT22;65428;53.194;6.132;2023-04-03T03:30:52;-0.30;99.90
76567;DHT22;65428;53.194;6.132;2023-04-03T03:33:21;-0.30;99.90
76567;DHT22;65428;53.194;6.132;2023-04-03T03:35:47;-0.40;99.90
76567;DHT22;65428;53.194;6.132;2023-04-03T03:38:12;0.00;99.90
76567;DHT22;65428;53.194;6.132;2023-04-03T03:40:38;-0.40;99.90
76567;DHT22;65428;53.194;6.132;2023-04-03T03:43:07;-0.40;99.90
76567;DHT22;65428;53.194;6.132;2023-04-03T03:45:35;-0.20;99.90
76567;DHT22;65428;53.194;6.132;2023-04-03T03:48:04;-0.70;99.90
76567;DHT22;65428;53.194;6.132;2023-04-03T03:50:30;-0.60;99.90
76567;DHT22;65428;53.194;6.132;2023-04-03T03:52:55;-0.40;99.90
76567;DHT22;65428;53.194;6.132;2023-04-03T03:55:21;-0.70;99.90
76567;DHT22;65428;53.194;6.132;2023-04-03T03:57:47;-0.70;99.90
76567;DHT22;65428;53.194;6.132;2023-04-03T04:00:14;-0.70;99.90
76567;DHT22;65428;53.194;6.132;2023-04-03T04:02:43;-0.80;99.90
76567;DHT22;65428;53.194;6.132;2023-04-03T04:05:09;-0.80;99.90
76567;DHT22;65428;53.194;6.132;2023-04-03T04:07:35;-0.80;99.90
76567;DHT22;65428;53.194;6.132;2023-04-03T04:10:04;-0.80;99.90
76567;DHT22;65428;53.194;6.132;2023-04-03T04:12:32;-1.00;99.90
76567;DHT22;65428;53.194;6.132;2023-04-03T04:14:58;-0.90;99.90
76567;DHT22;65428;53.194;6.132;2023-04-03T04:20:30;-0.90;99.90
76567;DHT22;65428;53.194;6.132;2023-04-03T04:22:56;-0.80;99.90
76567;DHT22;65428;53.194;6.132;2023-04-03T04:25:21;-0.90;99.90
76567;DHT22;65428;53.194;6.132;2023-04-03T04:27:47;-0.40;99.90
76567;DHT22;65428;53.194;6.132;2023-04-03T04:30:13;-0.70;99.90
76567;DHT22;65428;53.194;6.132;2023-04-03T04:32:39;-0.80;99.90
76567;DHT22;65428;53.194;6.132;2023-04-03T04:35:05;-0.80;99.90
76567;DHT22;65428;53.194;6.132;2023-04-03T04:37:31;-0.80;99.90
76567;DHT22;65428;53.194;6.132;2023-04-03T04:39:56;-0.80;99.90
76567;DHT22;65428;53.194;6.132;2023-04-03T04:42:22;-0.70;99.90
76567;DHT22;65428;53.194;6.132;2023-04-03T04:44:48;-0.80;99.90
76567;DHT22;65428;53.194;6.132;2023-04-03T04:47:19;-0.80;99.90
76567;DHT22;65428;53.194;6.132;2023-04-03T04:49:44;-0.80;99.90
76567;DHT22;65428;53.194;6.132;2023-04-03T04:52:10;-0.80;99.90
76567;DHT22;65428;53.194;6.132;2023-04-03T04:54:36;-0.70;99.90
76567;DHT22;65428;53.194;6.132;2023-04-03T04:57:02;-0.80;99.90
76567;DHT22;65428;53.194;6.132;2023-04-03T04:59:27;-0.80;99.90
76567;DHT22;65428;53.194;6.132;2023-04-03T05:01:53;-0.70;99.90
76567;DHT22;65428;53.194;6.132;2023-04-03T05:04:19;-0.40;99.90
76567;DHT22;65428;53.194;6.132;2023-04-03T05:06:45;-1.00;99.90
76567;DHT22;65428;53.194;6.132;2023-04-03T05:09:10;-0.80;99.90
76567;DHT22;65428;53.194;6.132;2023-04-03T05:11:36;-0.70;99.90
76567;DHT22;65428;53.194;6.132;2023-04-03T05:14:02;-0.80;99.90
76567;DHT22;65428;53.194;6.132;2023-04-03T05:16:30;-0.80;99.90
76567;DHT22;65428;53.194;6.132;2023-04-03T05:18:56;-0.80;99.90
76567;DHT22;65428;53.194;6.132;2023-04-03T05:21:21;-0.80;99.90
76567;DHT22;65428;53.194;6.132;2023-04-03T05:23:50;-0.80;99.90
76567;DHT22;65428;53.194;6.132;2023-04-03T05:26:15;-0.80;99.90
76567;DHT22;65428;53.194;6.132;2023-04-03T05:28:41;-0.60;99.90
76567;DHT22;65428;53.194;6.132;2023-04-03T05:31:07;-0.60;99.90
76567;DHT22;65428;53.194;6.132;2023-04-03T05:33:33;-0.60;99.90
76567;DHT22;65428;53.194;6.132;2023-04-03T05:36:05;-0.50;99.90
76567;DHT22;65428;53.194;6.132;2023-04-03T05:38:32;-0.40;99.90
76567;DHT22;65428;53.194;6.132;2023-04-03T05:40:57;-0.50;99.90
76567;DHT22;65428;53.194;6.132;2023-04-03T05:43:23;-0.20;99.90
76567;DHT22;65428;53.194;6.132;2023-04-03T05:45:49;-0.10;99.90
76567;DHT22;65428;53.194;6.132;2023-04-03T05:48:14;-0.20;99.90
76567;DHT22;65428;53.194;6.132;2023-04-03T05:50:40;-0.20;99.90
76567;DHT22;65428;53.194;6.132;2023-04-03T05:53:15;-0.10;99.90
76567;DHT22;65428;53.194;6.132;2023-04-03T05:55:43;0.00;99.90
76567;DHT22;65428;53.194;6.132;2023-04-03T05:58:08;0.00;99.90
76567;DHT22;65428;53.194;6.132;2023-04-03T06:00:34;0.20;99.90
76567;DHT22;65428;53.194;6.132;2023-04-03T06:03:00;0.20;99.90
76567;DHT22;65428;53.194;6.132;2023-04-03T06:05:25;0.30;99.90
76567;DHT22;65428;53.194;6.132;2023-04-03T06:07:51;0.60;99.90
76567;DHT22;65428;53.194;6.132;2023-04-03T06:10:17;0.50;99.90
76567;DHT22;65428;53.194;6.132;2023-04-03T06:12:43;0.60;99.90
76567;DHT22;65428;53.194;6.132;2023-04-03T06:15:08;0.60;99.90
76567;DHT22;65428;53.194;6.132;2023-04-03T06:17:36;0.70;99.90
76567;DHT22;65428;53.194;6.132;2023-04-03T06:20:03;1.50;99.90
76567;DHT22;65428;53.194;6.132;2023-04-03T06:22:29;0.90;99.90
76567;DHT22;65428;53.194;6.132;2023-04-03T06:24:56;1.00;99.90
76567;DHT22;65428;53.194;6.132;2023-04-03T06:27:22;1.00;99.90
76567;DHT22;65428;53.194;6.132;2023-04-03T06:29:47;1.10;99.90
76567;DHT22;65428;53.194;6.132;2023-04-03T06:32:15;1.10;99.90
76567;DHT22;65428;53.194;6.132;2023-04-03T06:34:41;1.20;99.90
76567;DHT22;65428;53.194;6.132;2023-04-03T06:37:14;1.50;99.90
76567;DHT22;65428;53.194;6.132;2023-04-03T06:39:40;1.50;99.90
76567;DHT22;65428;53.194;6.132;2023-04-03T06:42:07;1.70;99.90
76567;DHT22;65428;53.194;6.132;2023-04-03T06:44:32;1.50;99.90
76567;DHT22;65428;53.194;6.132;2023-04-03T06:47:00;1.70;99.90
76567;DHT22;65428;53.194;6.132;2023-04-03T06:49:26;1.80;99.90
76567;DHT22;65428;53.194;6.132;2023-04-03T06:51:51;1.80;99.90
76567;DHT22;65428;53.194;6.132;2023-04-03T06:54:17;2.20;99.90
76567;DHT22;65428;53.194;6.132;2023-04-03T06:56:43;2.70;99.90
76567;DHT22;65428;53.194;6.132;2023-04-03T06:59:10;2.20;99.90
76567;DHT22;65428;53.194;6.132;2023-04-03T07:01:39;2.30;99.90
76567;DHT22;65428;53.194;6.132;2023-04-03T07:04:06;2.30;99.90
76567;DHT22;65428;53.194;6.132;2023-04-03T07:06:32;2.30;99.90
76567;DHT22;65428;53.194;6.132;2023-04-03T07:08:58;2.10;99.90
76567;DHT22;65428;53.194;6.132;2023-04-03T07:11:24;2.50;99.90
76567;DHT22;65428;53.194;6.132;2023-04-03T07:13:52;2.90;99.90
76567;DHT22;65428;53.194;6.132;2023-04-03T07:16:18;2.70;99.90
76567;DHT22;65428;53.194;6.132;2023-04-03T07:18:44;2.70;99.90
76567;DHT22;65428;53.194;6.132;2023-04-03T07:21:13;3.20;99.90
76567;DHT22;65428;53.194;6.132;2023-04-03T07:23:39;2.90;99.90
76567;DHT22;65428;53.194;6.132;2023-04-03T07:26:14;3.20;99.90
76567;DHT22;65428;53.194;6.132;2023-04-03T07:28:40;3.30;99.90
76567;DHT22;65428;53.194;6.132;2023-04-03T07:31:10;3.40;99.90
76567;DHT22;65428;53.194;6.132;2023-04-03T07:33:37;3.20;99.90
76567;DHT22;65428;53.194;6.132;2023-04-03T07:36:04;3.30;99.90
76567;DHT22;65428;53.194;6.132;2023-04-03T07:38:30;3.30;99.90
76567;DHT22;65428;53.194;6.132;2023-04-03T07:40:56;3.30;99.90
76567;DHT22;65428;53.194;6.132;2023-04-03T07:43:22;3.70;99.90
76567;DHT22;65428;53.194;6.132;2023-04-03T07:45:53;3.60;99.90
76567;DHT22;65428;53.194;6.132;2023-04-03T07:48:24;3.90;99.90
76567;DHT22;65428;53.194;6.132;2023-04-03T07:50:59;4.00;99.90
76567;DHT22;65428;53.194;6.132;2023-04-03T07:53:26;3.90;99.90
76567;DHT22;65428;53.194;6.132;2023-04-03T07:55:51;3.90;99.90
76567;DHT22;65428;53.194;6.132;2023-04-03T07:58:36;3.80;99.90
76567;DHT22;65428;53.194;6.132;2023-04-03T08:01:02;4.20;99.90
76567;DHT22;65428;53.194;6.132;2023-04-03T08:03:34;4.10;99.90
76567;DHT22;65428;53.194;6.132;2023-04-03T08:06:03;4.20;99.90
76567;DHT22;65428;53.194;6.132;2023-04-03T08:08:35;4.70;99.90
76567;DHT22;65428;53.194;6.132;2023-04-03T08:11:28;4.50;99.90
76567;DHT22;65428;53.194;6.132;2023-04-03T08:13:56;5.00;99.00
76567;DHT22;65428;53.194;6.132;2023-04-03T08:16:43;4.30;99.90
76567;DHT22;65428;53.194;6.132;2023-04-03T08:19:21;4.70;97.70
76567;DHT22;65428;53.194;6.132;2023-04-03T08:21:56;4.70;96.10
76567;DHT22;65428;53.194;6.132;2023-04-03T08:24:26;5.20;98.60
76567;DHT22;65428;53.194;6.132;2023-04-03T08:26:51;4.80;99.90
76567;DHT22;65428;53.194;6.132;2023-04-03T08:32:42;5.20;98.30
76567;DHT22;65428;53.194;6.132;2023-04-03T08:35:16;5.20;97.60
76567;DHT22;65428;53.194;6.132;2023-04-03T08:37:53;5.30;99.90
76567;DHT22;65428;53.194;6.132;2023-04-03T08:40:32;5.30;90.30
76567;DHT22;65428;53.194;6.132;2023-04-03T08:46:24;5.50;73.00
76567;DHT22;65428;53.194;6.132;2023-04-03T08:56:39;5.90;82.60
76567;DHT22;65428;53.194;6.132;2023-04-03T08:59:24;6.10;72.30
76567;DHT22;65428;53.194;6.132;2023-04-03T09:01:54;5.90;81.40
76567;DHT22;65428;53.194;6.132;2023-04-03T09:04:28;6.00;71.10
76567;DHT22;65428;53.194;6.132;2023-04-03T09:10:45;6.60;66.40
76567;DHT22;65428;53.194;6.132;2023-04-03T09:23:48;6.80;60.70
76567;DHT22;65428;53.194;6.132;2023-04-03T09:26:52;6.90;59.90
76567;DHT22;65428;53.194;6.132;2023-04-03T09:29:32;7.00;64.50
76567;DHT22;65428;53.194;6.132;2023-04-03T09:32:02;7.20;60.90
76567;DHT22;65428;53.194;6.132;2023-04-03T09:34:44;7.30;60.50
76567;DHT22;65428;53.194;6.132;2023-04-03T09:37:40;7.50;60.80
76567;DHT22;65428;53.194;6.132;2023-04-03T09:40:31;7.50;64.70
76567;DHT22;65428;53.194;6.132;2023-04-03T09:43:30;7.40;63.80
76567;DHT22;65428;53.194;6.132;2023-04-03T09:46:18;7.60;61.60
76567;DHT22;65428;53.194;6.132;2023-04-03T09:51:31;7.70;64.40
76567;DHT22;65428;53.194;6.132;2023-04-03T09:54:33;7.80;64.00
76567;DHT22;65428;53.194;6.132;2023-04-03T09:57:07;7.90;60.00
76567;DHT22;65428;53.194;6.132;2023-04-03T09:59:33;8.10;56.90
76567;DHT22;65428;53.194;6.132;2023-04-03T10:04:57;8.40;53.60
76567;DHT22;65428;53.194;6.132;2023-04-03T10:07:41;8.80;52.30
76567;DHT22;65428;53.194;6.132;2023-04-03T10:10:19;9.70;55.60
76567;DHT22;65428;53.194;6.132;2023-04-03T10:13:10;9.70;55.30
76567;DHT22;65428;53.194;6.132;2023-04-03T10:15:42;10.70;55.20
76567;DHT22;65428;53.194;6.132;2023-04-03T10:24:44;12.30;44.20
76567;DHT22;65428;53.194;6.132;2023-04-03T10:27:42;12.70;42.00
76567;DHT22;65428;53.194;6.132;2023-04-03T10:40:05;13.10;38.80
76567;DHT22;65428;53.194;6.132;2023-04-03T10:46:36;13.70;43.60
76567;DHT22;65428;53.194;6.132;2023-04-03T10:49:25;14.10;43.70
76567;DHT22;65428;53.194;6.132;2023-04-03T10:54:35;14.70;39.20
76567;DHT22;65428;53.194;6.132;2023-04-03T10:57:05;14.60;41.90
76567;DHT22;65428;53.194;6.132;2023-04-03T10:59:48;14.90;39.30
76567;DHT22;65428;53.194;6.132;2023-04-03T11:02:51;15.20;37.10
76567;DHT22;65428;53.194;6.132;2023-04-03T11:08:51;15.20;36.90
76567;DHT22;65428;53.194;6.132;2023-04-03T11:11:46;15.20;40.00
76567;DHT22;65428;53.194;6.132;2023-04-03T11:14:41;15.60;38.30
76567;DHT22;65428;53.194;6.132;2023-04-03T11:19:46;15.90;35.10
76567;DHT22;65428;53.194;6.132;2023-04-03T11:22:36;15.80;36.20
76567;DHT22;65428;53.194;6.132;2023-04-03T11:25:17;15.80;34.80
76567;DHT22;65428;53.194;6.132;2023-04-03T11:28:05;15.70;34.90
76567;DHT22;65428;53.194;6.132;2023-04-03T11:36:39;15.90;34.30
76567;DHT22;65428;53.194;6.132;2023-04-03T11:39:26;15.90;35.10
76567;DHT22;65428;53.194;6.132;2023-04-03T12:01:07;16.30;33.20
76567;DHT22;65428;53.194;6.132;2023-04-03T12:04:10;16.30;32.40
76567;DHT22;65428;53.194;6.132;2023-04-03T12:09:57;16.30;31.60
76567;DHT22;65428;53.194;6.132;2023-04-03T12:13:00;16.30;32.40
76567;DHT22;65428;53.194;6.132;2023-04-03T12:15:51;16.30;34.70
76567;DHT22;65428;53.194;6.132;2023-04-03T12:26:47;17.70;31.00
76567;DHT22;65428;53.194;6.132;2023-04-03T12:46:55;19.30;31.40
76567;DHT22;65428;53.194;6.132;2023-04-03T12:52:45;19.70;30.40
76567;DHT22;65428;53.194;6.132;2023-04-03T12:55:18;19.40;30.00
76567;DHT22;65428;53.194;6.132;2023-04-03T12:57:44;19.60;33.60
76567;DHT22;65428;53.194;6.132;2023-04-03T13:03:26;20.10;29.00
76567;DHT22;65428;53.194;6.132;2023-04-03T13:06:23;19.70;29.00
76567;DHT22;65428;53.194;6.132;2023-04-03T13:08:55;19.80;29.60
76567;DHT22;65428;53.194;6.132;2023-04-03T13:11:39;19.90;30.00
76567;DHT22;65428;53.194;6.132;2023-04-03T13:14:34;19.80;32.40
76567;DHT22;65428;53.194;6.132;2023-04-03T13:17:10;20.30;33.60
76567;DHT22;65428;53.194;6.132;2023-04-03T13:19:45;20.60;30.30
76567;DHT22;65428;53.194;6.132;2023-04-03T13:25:19;20.00;29.30
76567;DHT22;65428;53.194;6.132;2023-04-03T13:27:59;19.50;28.80
76567;DHT22;65428;53.194;6.132;2023-04-03T13:30:37;19.60;29.10
76567;DHT22;65428;53.194;6.132;2023-04-03T13:33:26;19.70;29.40
76567;DHT22;65428;53.194;6.132;2023-04-03T13:36:23;19.70;29.10
76567;DHT22;65428;53.194;6.132;2023-04-03T13:41:35;19.90;32.60
76567;DHT22;65428;53.194;6.132;2023-04-03T13:50:11;19.30;32.60
76567;DHT22;65428;53.194;6.132;2023-04-03T13:52:46;19.00;29.40
76567;DHT22;65428;53.194;6.132;2023-04-03T13:55:17;18.40;30.70
76567;DHT22;65428;53.194;6.132;2023-04-03T13:58:20;17.90;29.80
76567;DHT22;65428;53.194;6.132;2023-04-03T14:01:10;17.60;30.90
76567;DHT22;65428;53.194;6.132;2023-04-03T14:03:57;17.30;32.00
76567;DHT22;65428;53.194;6.132;2023-04-03T14:06:23;17.30;31.70
76567;DHT22;65428;53.194;6.132;2023-04-03T14:08:49;17.90;34.60
76567;DHT22;65428;53.194;6.132;2023-04-03T14:11:30;17.00;32.10
76567;DHT22;65428;53.194;6.132;2023-04-03T14:14:02;17.00;32.20
76567;DHT22;65428;53.194;6.132;2023-04-03T14:16:32;18.10;35.20
76567;DHT22;65428;53.194;6.132;2023-04-03T14:19:18;18.10;32.80
76567;DHT22;65428;53.194;6.132;2023-04-03T14:21:48;19.50;33.20
76567;DHT22;65428;53.194;6.132;2023-04-03T14:24:16;19.90;29.90
76567;DHT22;65428;53.194;6.132;2023-04-03T14:26:43;20.20;31.70
76567;DHT22;65428;53.194;6.132;2023-04-03T14:29:11;20.80;28.10
76567;DHT22;65428;53.194;6.132;2023-04-03T14:31:41;21.30;29.40
76567;DHT22;65428;53.194;6.132;2023-04-03T14:34:06;21.70;30.50
76567;DHT22;65428;53.194;6.132;2023-04-03T14:36:40;21.80;28.90
76567;DHT22;65428;53.194;6.132;2023-04-03T14:39:36;21.10;27.70
76567;DHT22;65428;53.194;6.132;2023-04-03T14:42:02;20.00;30.40
76567;DHT22;65428;53.194;6.132;2023-04-03T14:44:27;19.10;30.30
76567;DHT22;65428;53.194;6.132;2023-04-03T14:46:53;18.80;31.30
76567;DHT22;65428;53.194;6.132;2023-04-03T14:52:05;16.90;36.30
76567;DHT22;65428;53.194;6.132;2023-04-03T14:54:36;16.10;36.50
76567;DHT22;65428;53.194;6.132;2023-04-03T14:57:14;15.50;38.70
76567;DHT22;65428;53.194;6.132;2023-04-03T15:00:04;14.90;38.30
76567;DHT22;65428;53.194;6.132;2023-04-03T15:02:37;14.40;39.70
76567;DHT22;65428;53.194;6.132;2023-04-03T15:05:09;14.00;38.90
76567;DHT22;65428;53.194;6.132;2023-04-03T15:08:22;13.60;42.30
76567;DHT22;65428;53.194;6.132;2023-04-03T15:10:37;13.20;41.50
76567;DHT22;65428;53.194;6.132;2023-04-03T15:13:02;13.00;44.40
76567;DHT22;65428;53.194;6.132;2023-04-03T15:15:35;12.90;44.00
76567;DHT22;65428;53.194;6.132;2023-04-03T15:18:05;12.40;43.30
76567;DHT22;65428;53.194;6.132;2023-04-03T15:20:36;12.30;44.70
76567;DHT22;65428;53.194;6.132;2023-04-03T15:23:05;12.10;44.60
76567;DHT22;65428;53.194;6.132;2023-04-03T15:25:40;12.10;46.00
76567;DHT22;65428;53.194;6.132;2023-04-03T15:31:12;11.60;46.50
76567;DHT22;65428;53.194;6.132;2023-04-03T15:33:49;11.30;47.70
76567;DHT22;65428;53.194;6.132;2023-04-03T15:36:34;11.30;46.30
76567;DHT22;65428;53.194;6.132;2023-04-03T15:38:59;11.20;49.30
76567;DHT22;65428;53.194;6.132;2023-04-03T15:41:28;11.30;48.10
76567;DHT22;65428;53.194;6.132;2023-04-03T15:44:00;11.10;47.60
76567;DHT22;65428;53.194;6.132;2023-04-03T15:46:26;11.30;48.80
76567;DHT22;65428;53.194;6.132;2023-04-03T15:48:51;11.60;48.60
76567;DHT22;65428;53.194;6.132;2023-04-03T15:51:17;11.80;47.50
76567;DHT22;65428;53.194;6.132;2023-04-03T15:53:43;11.20;47.10
76567;DHT22;65428;53.194;6.132;2023-04-03T15:56:09;11.30;48.20
76567;DHT22;65428;53.194;6.132;2023-04-03T15:58:35;11.10;46.70
76567;DHT22;65428;53.194;6.132;2023-04-03T16:01:01;10.70;48.40
76567;DHT22;65428;53.194;6.132;2023-04-03T16:03:27;10.80;48.30
76567;DHT22;65428;53.194;6.132;2023-04-03T16:05:53;10.30;49.00
76567;DHT22;65428;53.194;6.132;2023-04-03T16:08:37;10.20;48.90
76567;DHT22;65428;53.194;6.132;2023-04-03T16:11:03;9.60;50.30
76567;DHT22;65428;53.194;6.132;2023-04-03T16:13:34;9.60;49.90
76567;DHT22;65428;53.194;6.132;2023-04-03T16:16:00;9.70;50.60
76567;DHT22;65428;53.194;6.132;2023-04-03T16:18:29;9.60;49.70
76567;DHT22;65428;53.194;6.132;2023-04-03T16:20:58;9.50;50.70
76567;DHT22;65428;53.194;6.132;2023-04-03T16:23:30;9.80;49.70
76567;DHT22;65428;53.194;6.132;2023-04-03T16:25:56;9.50;48.90
76567;DHT22;65428;53.194;6.132;2023-04-03T16:28:21;9.60;50.40
76567;DHT22;65428;53.194;6.132;2023-04-03T16:30:47;9.80;51.00
76567;DHT22;65428;53.194;6.132;2023-04-03T16:33:14;9.40;51.30
76567;DHT22;65428;53.194;6.132;2023-04-03T16:35:40;9.40;52.50
76567;DHT22;65428;53.194;6.132;2023-04-03T16:38:10;9.40;50.50
76567;DHT22;65428;53.194;6.132;2023-04-03T16:40:36;9.20;50.70
76567;DHT22;65428;53.194;6.132;2023-04-03T16:43:05;9.20;52.40
76567;DHT22;65428;53.194;6.132;2023-04-03T16:45:51;9.00;52.40
76567;DHT22;65428;53.194;6.132;2023-04-03T16:48:17;8.80;52.70
76567;DHT22;65428;53.194;6.132;2023-04-03T16:53:42;8.70;52.70
76567;DHT22;65428;53.194;6.132;2023-04-03T16:59:13;8.70;53.20
76567;DHT22;65428;53.194;6.132;2023-04-03T17:01:41;8.60;54.20
76567;DHT22;65428;53.194;6.132;2023-04-03T17:04:09;8.50;53.20
76567;DHT22;65428;53.194;6.132;2023-04-03T17:06:41;8.30;52.90
76567;DHT22;65428;53.194;6.132;2023-04-03T17:09:07;8.30;53.80
76567;DHT22;65428;53.194;6.132;2023-04-03T17:11:33;8.20;53.70
76567;DHT22;65428;53.194;6.132;2023-04-03T17:14:08;8.10;54.90
76567;DHT22;65428;53.194;6.132;2023-04-03T17:16:38;8.40;56.50
76567;DHT22;65428;53.194;6.132;2023-04-03T17:19:13;8.00;55.30
76567;DHT22;65428;53.194;6.132;2023-04-03T17:21:42;8.00;56.00
76567;DHT22;65428;53.194;6.132;2023-04-03T17:24:13;7.90;56.80
76567;DHT22;65428;53.194;6.132;2023-04-03T17:26:45;7.70;57.00
76567;DHT22;65428;53.194;6.132;2023-04-03T17:29:25;8.00;57.40
76567;DHT22;65428;53.194;6.132;2023-04-03T17:31:51;7.70;57.20
76567;DHT22;65428;53.194;6.132;2023-04-03T17:34:17;7.90;58.30
76567;DHT22;65428;53.194;6.132;2023-04-03T17:36:48;7.90;58.60
76567;DHT22;65428;53.194;6.132;2023-04-03T17:39:13;7.60;58.50
76567;DHT22;65428;53.194;6.132;2023-04-03T17:41:42;7.60;59.00
76567;DHT22;65428;53.194;6.132;2023-04-03T17:44:13;7.30;59.10
76567;DHT22;65428;53.194;6.132;2023-04-03T17:46:39;7.20;59.40
76567;DHT22;65428;53.194;6.132;2023-04-03T17:49:04;7.10;60.30
76567;DHT22;65428;53.194;6.132;2023-04-03T17:51:40;6.90;60.50
76567;DHT22;65428;53.194;6.132;2023-04-03T17:54:09;7.00;61.50
76567;DHT22;65428;53.194;6.132;2023-04-03T17:56:34;6.80;62.20
76567;DHT22;65428;53.194;6.132;2023-04-03T17:59:00;6.50;62.60
76567;DHT22;65428;53.194;6.132;2023-04-03T18:01:28;6.90;64.10
76567;DHT22;65428;53.194;6.132;2023-04-03T18:03:57;6.90;65.50
76567;DHT22;65428;53.194;6.132;2023-04-03T18:06:29;6.20;66.80
76567;DHT22;65428;53.194;6.132;2023-04-03T18:09:00;6.40;69.00
76567;DHT22;65428;53.194;6.132;2023-04-03T18:11:28;6.40;70.90
76567;DHT22;65428;53.194;6.132;2023-04-03T18:13:56;6.50;72.60
76567;DHT22;65428;53.194;6.132;2023-04-03T18:16:26;6.10;76.30
76567;DHT22;65428;53.194;6.132;2023-04-03T18:18:51;6.00;80.00
76567;DHT22;65428;53.194;6.132;2023-04-03T18:21:17;6.00;82.90
76567;DHT22;65428;53.194;6.132;2023-04-03T18:23:49;6.10;84.40
76567;DHT22;65428;53.194;6.132;2023-04-03T18:26:15;6.60;87.00
76567;DHT22;65428;53.194;6.132;2023-04-03T18:28:45;5.80;90.70
76567;DHT22;65428;53.194;6.132;2023-04-03T18:31:16;5.60;90.40
76567;DHT22;65428;53.194;6.132;2023-04-03T18:33:43;5.50;91.80
76567;DHT22;65428;53.194;6.132;2023-04-03T18:36:09;5.60;93.50
76567;DHT22;65428;53.194;6.132;2023-04-03T18:38:35;5.40;93.00
76567;DHT22;65428;53.194;6.132;2023-04-03T18:41:02;5.50;95.30
76567;DHT22;65428;53.194;6.132;2023-04-03T18:43:32;5.80;95.30